sensor_id;sensor_type;location;lat;lon;timestamp;P1;durP1;ratioP1;P2;durP2;ratioP2
76155;SDS011;64906;51.290;7.348;2023-08-21T00:01:43;22.63;;;14.10;;
76155;SDS011;64906;51.290;7.348;2023-08-21T00:04:08;24.07;;;13.10;;
76155;SDS011;64906;51.290;7.348;2023-08-21T00:06:34;22.58;;;13.38;;
76155;SDS011;64906;51.290;7.348;2023-08-21T00:09:00;20.30;;;12.27;;
76155;SDS011;64906;51.290;7.348;2023-08-21T00:11:26;20.45;;;13.05;;
76155;SDS011;64906;51.290;7.348;2023-08-21T00:13:51;20.30;;;12.87;;
76155;SDS011;64906;51.290;7.348;2023-08-21T00:16:16;21.00;;;13.37;;
76155;SDS011;64906;51.290;7.348;2023-08-21T00:18:42;20.38;;;13.40;;
76155;SDS011;64906;51.290;7.348;2023-08-21T00:21:08;21.83;;;13.50;;
76155;SDS011;64906;51.290;7.348;2023-08-21T00:23:33;20.33;;;12.63;;
76155;SDS011;64906;51.290;7.348;2023-08-21T00:25:58;20.70;;;12.17;;
76155;SDS011;64906;51.290;7.348;2023-08-21T00:28:23;19.57;;;11.30;;
76155;SDS011;64906;51.290;7.348;2023-08-21T00:30:49;20.38;;;12.93;;
76155;SDS011;64906;51.290;7.348;2023-08-21T00:33:14;20.33;;;13.10;;
76155;SDS011;64906;51.290;7.348;2023-08-21T00:35:40;20.87;;;12.60;;
76155;SDS011;64906;51.290;7.348;2023-08-21T00:38:06;22.08;;;12.32;;
76155;SDS011;64906;51.290;7.348;2023-08-21T00:40:31;20.83;;;12.33;;
76155;SDS011;64906;51.290;7.348;2023-08-21T00:42:57;18.80;;;11.27;;
76155;SDS011;64906;51.290;7.348;2023-08-21T00:45:22;21.57;;;11.97;;
76155;SDS011;64906;51.290;7.348;2023-08-21T00:47:47;19.77;;;12.43;;
76155;SDS011;64906;51.290;7.348;2023-08-21T00:50:13;18.60;;;11.57;;
76155;SDS011;64906;51.290;7.348;2023-08-21T00:52:40;19.65;;;11.82;;
76155;SDS011;64906;51.290;7.348;2023-08-21T00:55:11;20.05;;;11.57;;
76155;SDS011;64906;51.290;7.348;2023-08-21T00:57:38;19.33;;;11.82;;
76155;SDS011;64906;51.290;7.348;2023-08-21T01:00:04;19.55;;;11.48;;
76155;SDS011;64906;51.290;7.348;2023-08-21T01:02:30;18.20;;;11.57;;
76155;SDS011;64906;51.290;7.348;2023-08-21T01:04:55;17.88;;;10.80;;
76155;SDS011;64906;51.290;7.348;2023-08-21T01:07:21;17.80;;;10.88;;
76155;SDS011;64906;51.290;7.348;2023-08-21T01:09:50;16.42;;;10.57;;
76155;SDS011;64906;51.290;7.348;2023-08-21T01:12:24;18.67;;;10.70;;
76155;SDS011;64906;51.290;7.348;2023-08-21T01:14:57;19.42;;;10.93;;
76155;SDS011;64906;51.290;7.348;2023-08-21T01:17:24;17.55;;;10.13;;
76155;SDS011;64906;51.290;7.348;2023-08-21T01:19:52;18.75;;;11.68;;
76155;SDS011;64906;51.290;7.348;2023-08-21T01:22:18;18.08;;;10.55;;
76155;SDS011;64906;51.290;7.348;2023-08-21T01:24:43;17.45;;;10.88;;
76155;SDS011;64906;51.290;7.348;2023-08-21T01:27:09;19.27;;;11.07;;
76155;SDS011;64906;51.290;7.348;2023-08-21T01:29:37;14.80;;;10.18;;
76155;SDS011;64906;51.290;7.348;2023-08-21T01:32:06;16.75;;;10.10;;
76155;SDS011;64906;51.290;7.348;2023-08-21T01:34:37;17.45;;;10.23;;
76155;SDS011;64906;51.290;7.348;2023-08-21T01:37:03;14.93;;;9.48;;
76155;SDS011;64906;51.290;7.348;2023-08-21T01:39:30;15.20;;;9.88;;
76155;SDS011;64906;51.290;7.348;2023-08-21T01:41:57;15.02;;;9.68;;
76155;SDS011;64906;51.290;7.348;2023-08-21T01:44:22;15.38;;;10.02;;
76155;SDS011;64906;51.290;7.348;2023-08-21T01:46:48;15.90;;;9.73;;
76155;SDS011;64906;51.290;7.348;2023-08-21T01:49:13;15.80;;;10.13;;
76155;SDS011;64906;51.290;7.348;2023-08-21T01:51:38;15.00;;;9.73;;
76155;SDS011;64906;51.290;7.348;2023-08-21T01:54:04;16.57;;;10.17;;
76155;SDS011;64906;51.290;7.348;2023-08-21T01:56:29;15.37;;;9.40;;
76155;SDS011;64906;51.290;7.348;2023-08-21T01:58:54;15.83;;;9.37;;
76155;SDS011;64906;51.290;7.348;2023-08-21T02:01:20;15.37;;;9.63;;
76155;SDS011;64906;51.290;7.348;2023-08-21T02:03:45;15.40;;;9.07;;
76155;SDS011;64906;51.290;7.348;2023-08-21T02:06:10;15.40;;;8.82;;
76155;SDS011;64906;51.290;7.348;2023-08-21T02:08:36;15.52;;;9.65;;
76155;SDS011;64906;51.290;7.348;2023-08-21T02:11:02;14.90;;;9.40;;
76155;SDS011;64906;51.290;7.348;2023-08-21T02:13:27;15.55;;;9.30;;
76155;SDS011;64906;51.290;7.348;2023-08-21T02:15:52;17.13;;;9.27;;
76155;SDS011;64906;51.290;7.348;2023-08-21T02:18:18;14.20;;;8.95;;
76155;SDS011;64906;51.290;7.348;2023-08-21T02:20:43;14.83;;;8.97;;
76155;SDS011;64906;51.290;7.348;2023-08-21T02:23:08;14.40;;;8.77;;
76155;SDS011;64906;51.290;7.348;2023-08-21T02:25:34;14.13;;;8.60;;
76155;SDS011;64906;51.290;7.348;2023-08-21T02:27:59;12.45;;;8.65;;
76155;SDS011;64906;51.290;7.348;2023-08-21T02:30:25;14.10;;;8.65;;
76155;SDS011;64906;51.290;7.348;2023-08-21T02:32:54;14.75;;;9.10;;
76155;SDS011;64906;51.290;7.348;2023-08-21T02:35:20;14.75;;;9.00;;
76155;SDS011;64906;51.290;7.348;2023-08-21T02:37:45;13.35;;;8.45;;
76155;SDS011;64906;51.290;7.348;2023-08-21T02:40:10;15.00;;;9.00;;
76155;SDS011;64906;51.290;7.348;2023-08-21T02:42:36;14.93;;;8.90;;
76155;SDS011;64906;51.290;7.348;2023-08-21T02:45:01;13.23;;;7.97;;
76155;SDS011;64906;51.290;7.348;2023-08-21T02:49:58;14.83;;;8.63;;
76155;SDS011;64906;51.290;7.348;2023-08-21T02:52:24;11.63;;;7.53;;
76155;SDS011;64906;51.290;7.348;2023-08-21T02:54:49;12.63;;;8.03;;
76155;SDS011;64906;51.290;7.348;2023-08-21T02:57:14;12.88;;;8.20;;
76155;SDS011;64906;51.290;7.348;2023-08-21T02:59:40;13.73;;;8.47;;
76155;SDS011;64906;51.290;7.348;2023-08-21T03:02:05;14.80;;;8.17;;
76155;SDS011;64906;51.290;7.348;2023-08-21T03:04:30;10.83;;;7.17;;
76155;SDS011;64906;51.290;7.348;2023-08-21T03:06:55;12.97;;;8.10;;
76155;SDS011;64906;51.290;7.348;2023-08-21T03:09:21;12.53;;;7.80;;
76155;SDS011;64906;51.290;7.348;2023-08-21T03:11:46;12.33;;;7.80;;
76155;SDS011;64906;51.290;7.348;2023-08-21T03:14:11;12.73;;;7.10;;
76155;SDS011;64906;51.290;7.348;2023-08-21T03:16:37;12.10;;;7.53;;
76155;SDS011;64906;51.290;7.348;2023-08-21T03:19:02;13.93;;;7.50;;
76155;SDS011;64906;51.290;7.348;2023-08-21T03:21:27;12.83;;;7.23;;
76155;SDS011;64906;51.290;7.348;2023-08-21T03:23:56;13.45;;;8.02;;
76155;SDS011;64906;51.290;7.348;2023-08-21T03:26:23;12.05;;;7.68;;
76155;SDS011;64906;51.290;7.348;2023-08-21T03:28:49;12.48;;;7.85;;
76155;SDS011;64906;51.290;7.348;2023-08-21T03:31:14;12.53;;;7.00;;
76155;SDS011;64906;51.290;7.348;2023-08-21T03:33:40;11.35;;;6.85;;
76155;SDS011;64906;51.290;7.348;2023-08-21T03:36:05;10.82;;;6.97;;
76155;SDS011;64906;51.290;7.348;2023-08-21T03:38:30;11.15;;;6.60;;
76155;SDS011;64906;51.290;7.348;2023-08-21T03:40:56;11.70;;;7.27;;
76155;SDS011;64906;51.290;7.348;2023-08-21T03:43:21;12.45;;;6.85;;
76155;SDS011;64906;51.290;7.348;2023-08-21T03:45:47;10.88;;;7.07;;
76155;SDS011;64906;51.290;7.348;2023-08-21T03:48:12;11.23;;;6.60;;
76155;SDS011;64906;51.290;7.348;2023-08-21T03:50:38;13.00;;;7.10;;
76155;SDS011;64906;51.290;7.348;2023-08-21T03:53:03;10.48;;;7.15;;
76155;SDS011;64906;51.290;7.348;2023-08-21T03:55:29;10.83;;;7.07;;
76155;SDS011;64906;51.290;7.348;2023-08-21T03:57:54;10.97;;;7.10;;
76155;SDS011;64906;51.290;7.348;2023-08-21T04:00:19;11.00;;;6.50;;
76155;SDS011;64906;51.290;7.348;2023-08-21T04:02:44;12.02;;;6.68;;
76155;SDS011;64906;51.290;7.348;2023-08-21T04:05:10;9.57;;;6.37;;
76155;SDS011;64906;51.290;7.348;2023-08-21T04:07:36;10.63;;;7.03;;
76155;SDS011;64906;51.290;7.348;2023-08-21T04:10:02;10.63;;;6.15;;
76155;SDS011;64906;51.290;7.348;2023-08-21T04:12:27;10.25;;;6.53;;
76155;SDS011;64906;51.290;7.348;2023-08-21T04:14:53;10.95;;;6.82;;
76155;SDS011;64906;51.290;7.348;2023-08-21T04:17:21;11.13;;;6.93;;
76155;SDS011;64906;51.290;7.348;2023-08-21T04:19:47;9.55;;;5.93;;
76155;SDS011;64906;51.290;7.348;2023-08-21T04:22:12;11.60;;;6.47;;
76155;SDS011;64906;51.290;7.348;2023-08-21T04:24:38;10.10;;;5.97;;
76155;SDS011;64906;51.290;7.348;2023-08-21T04:27:04;11.15;;;6.45;;
76155;SDS011;64906;51.290;7.348;2023-08-21T04:29:30;10.13;;;6.20;;
76155;SDS011;64906;51.290;7.348;2023-08-21T04:31:55;11.47;;;6.17;;
76155;SDS011;64906;51.290;7.348;2023-08-21T04:34:20;9.27;;;6.17;;
76155;SDS011;64906;51.290;7.348;2023-08-21T04:36:45;10.80;;;6.30;;
76155;SDS011;64906;51.290;7.348;2023-08-21T04:39:11;11.25;;;6.50;;
76155;SDS011;64906;51.290;7.348;2023-08-21T04:41:36;9.07;;;6.27;;
76155;SDS011;64906;51.290;7.348;2023-08-21T04:44:01;11.00;;;5.90;;
76155;SDS011;64906;51.290;7.348;2023-08-21T04:46:28;9.38;;;5.85;;
76155;SDS011;64906;51.290;7.348;2023-08-21T04:48:53;9.10;;;5.67;;
76155;SDS011;64906;51.290;7.348;2023-08-21T04:51:18;9.90;;;5.77;;
76155;SDS011;64906;51.290;7.348;2023-08-21T04:53:45;8.90;;;5.40;;
76155;SDS011;64906;51.290;7.348;2023-08-21T04:56:10;8.83;;;5.47;;
76155;SDS011;64906;51.290;7.348;2023-08-21T04:58:35;10.27;;;6.07;;
76155;SDS011;64906;51.290;7.348;2023-08-21T05:01:01;10.13;;;5.38;;
76155;SDS011;64906;51.290;7.348;2023-08-21T05:03:26;11.23;;;5.60;;
76155;SDS011;64906;51.290;7.348;2023-08-21T05:05:52;9.20;;;5.43;;
76155;SDS011;64906;51.290;7.348;2023-08-21T05:08:22;9.02;;;5.43;;
76155;SDS011;64906;51.290;7.348;2023-08-21T05:10:48;8.13;;;5.22;;
76155;SDS011;64906;51.290;7.348;2023-08-21T05:13:19;8.50;;;5.40;;
76155;SDS011;64906;51.290;7.348;2023-08-21T05:15:44;10.00;;;6.37;;
76155;SDS011;64906;51.290;7.348;2023-08-21T05:18:16;10.15;;;5.82;;
76155;SDS011;64906;51.290;7.348;2023-08-21T05:20:41;9.27;;;6.00;;
76155;SDS011;64906;51.290;7.348;2023-08-21T05:23:07;9.37;;;5.27;;
76155;SDS011;64906;51.290;7.348;2023-08-21T05:25:32;10.23;;;6.07;;
76155;SDS011;64906;51.290;7.348;2023-08-21T05:27:58;9.20;;;6.00;;
76155;SDS011;64906;51.290;7.348;2023-08-21T05:30:23;9.37;;;5.90;;
76155;SDS011;64906;51.290;7.348;2023-08-21T05:32:48;10.03;;;5.53;;
76155;SDS011;64906;51.290;7.348;2023-08-21T05:35:13;11.00;;;5.47;;
76155;SDS011;64906;51.290;7.348;2023-08-21T05:37:39;8.60;;;5.43;;
76155;SDS011;64906;51.290;7.348;2023-08-21T05:40:04;10.53;;;6.17;;
76155;SDS011;64906;51.290;7.348;2023-08-21T05:42:30;10.02;;;5.82;;
76155;SDS011;64906;51.290;7.348;2023-08-21T05:44:55;8.37;;;5.17;;
76155;SDS011;64906;51.290;7.348;2023-08-21T05:47:20;9.97;;;5.60;;
76155;SDS011;64906;51.290;7.348;2023-08-21T05:49:46;8.50;;;4.90;;
76155;SDS011;64906;51.290;7.348;2023-08-21T05:52:12;9.85;;;5.57;;
76155;SDS011;64906;51.290;7.348;2023-08-21T05:54:37;9.03;;;5.80;;
76155;SDS011;64906;51.290;7.348;2023-08-21T05:57:03;9.87;;;5.37;;
76155;SDS011;64906;51.290;7.348;2023-08-21T05:59:31;7.87;;;5.30;;
76155;SDS011;64906;51.290;7.348;2023-08-21T06:01:57;11.02;;;5.47;;
76155;SDS011;64906;51.290;7.348;2023-08-21T06:04:23;8.63;;;5.00;;
76155;SDS011;64906;51.290;7.348;2023-08-21T06:06:49;10.38;;;6.13;;
76155;SDS011;64906;51.290;7.348;2023-08-21T06:09:14;9.23;;;5.53;;
76155;SDS011;64906;51.290;7.348;2023-08-21T06:11:42;10.07;;;5.50;;
76155;SDS011;64906;51.290;7.348;2023-08-21T06:14:07;10.43;;;5.30;;
76155;SDS011;64906;51.290;7.348;2023-08-21T06:16:32;9.33;;;5.33;;
76155;SDS011;64906;51.290;7.348;2023-08-21T06:18:58;8.60;;;5.30;;
76155;SDS011;64906;51.290;7.348;2023-08-21T06:21:23;8.23;;;5.30;;
76155;SDS011;64906;51.290;7.348;2023-08-21T06:23:48;7.93;;;5.03;;
76155;SDS011;64906;51.290;7.348;2023-08-21T06:26:14;10.33;;;5.33;;
76155;SDS011;64906;51.290;7.348;2023-08-21T06:28:39;8.50;;;5.60;;
76155;SDS011;64906;51.290;7.348;2023-08-21T06:31:04;9.50;;;5.23;;
76155;SDS011;64906;51.290;7.348;2023-08-21T06:33:32;8.88;;;4.80;;
76155;SDS011;64906;51.290;7.348;2023-08-21T06:35:58;8.43;;;4.75;;
76155;SDS011;64906;51.290;7.348;2023-08-21T06:38:23;8.70;;;5.00;;
76155;SDS011;64906;51.290;7.348;2023-08-21T06:40:49;8.38;;;5.00;;
76155;SDS011;64906;51.290;7.348;2023-08-21T06:43:14;9.55;;;5.05;;
76155;SDS011;64906;51.290;7.348;2023-08-21T06:45:39;10.37;;;4.80;;
76155;SDS011;64906;51.290;7.348;2023-08-21T06:48:06;8.40;;;4.95;;
76155;SDS011;64906;51.290;7.348;2023-08-21T06:50:31;8.27;;;4.33;;
76155;SDS011;64906;51.290;7.348;2023-08-21T06:52:56;8.38;;;4.68;;
76155;SDS011;64906;51.290;7.348;2023-08-21T06:55:22;8.10;;;4.77;;
76155;SDS011;64906;51.290;7.348;2023-08-21T06:57:47;8.07;;;4.63;;
76155;SDS011;64906;51.290;7.348;2023-08-21T07:00:12;9.33;;;4.93;;
76155;SDS011;64906;51.290;7.348;2023-08-21T07:02:38;8.63;;;4.82;;
76155;SDS011;64906;51.290;7.348;2023-08-21T07:05:03;8.27;;;4.20;;
76155;SDS011;64906;51.290;7.348;2023-08-21T07:07:29;9.45;;;5.70;;
76155;SDS011;64906;51.290;7.348;2023-08-21T07:09:54;10.73;;;6.83;;
76155;SDS011;64906;51.290;7.348;2023-08-21T07:12:21;11.85;;;7.20;;
76155;SDS011;64906;51.290;7.348;2023-08-21T07:14:47;11.73;;;7.43;;
76155;SDS011;64906;51.290;7.348;2023-08-21T07:17:12;13.43;;;8.33;;
76155;SDS011;64906;51.290;7.348;2023-08-21T07:19:37;14.90;;;9.73;;
76155;SDS011;64906;51.290;7.348;2023-08-21T07:22:03;14.17;;;9.30;;
76155;SDS011;64906;51.290;7.348;2023-08-21T07:24:28;14.73;;;9.13;;
76155;SDS011;64906;51.290;7.348;2023-08-21T07:26:53;14.33;;;9.33;;
76155;SDS011;64906;51.290;7.348;2023-08-21T07:29:19;16.10;;;10.20;;
76155;SDS011;64906;51.290;7.348;2023-08-21T07:31:44;14.03;;;9.67;;
76155;SDS011;64906;51.290;7.348;2023-08-21T07:34:09;14.73;;;9.47;;
76155;SDS011;64906;51.290;7.348;2023-08-21T07:36:34;15.98;;;10.65;;
76155;SDS011;64906;51.290;7.348;2023-08-21T07:39:00;14.70;;;9.87;;
76155;SDS011;64906;51.290;7.348;2023-08-21T07:41:25;14.23;;;10.00;;
76155;SDS011;64906;51.290;7.348;2023-08-21T07:43:50;14.77;;;9.82;;
76155;SDS011;64906;51.290;7.348;2023-08-21T07:46:19;13.60;;;9.80;;
76155;SDS011;64906;51.290;7.348;2023-08-21T07:48:44;17.20;;;10.13;;
76155;SDS011;64906;51.290;7.348;2023-08-21T07:51:10;14.50;;;9.40;;
76155;SDS011;64906;51.290;7.348;2023-08-21T07:53:36;15.30;;;9.77;;
76155;SDS011;64906;51.290;7.348;2023-08-21T07:56:02;14.93;;;9.73;;
76155;SDS011;64906;51.290;7.348;2023-08-21T07:58:28;13.90;;;9.73;;
76155;SDS011;64906;51.290;7.348;2023-08-21T08:00:54;13.30;;;9.25;;
76155;SDS011;64906;51.290;7.348;2023-08-21T08:03:20;14.23;;;9.45;;
76155;SDS011;64906;51.290;7.348;2023-08-21T08:05:45;15.73;;;9.57;;
76155;SDS011;64906;51.290;7.348;2023-08-21T08:08:11;14.47;;;9.00;;
76155;SDS011;64906;51.290;7.348;2023-08-21T08:10:39;13.50;;;9.07;;
76155;SDS011;64906;51.290;7.348;2023-08-21T08:13:05;15.60;;;10.15;;
76155;SDS011;64906;51.290;7.348;2023-08-21T08:15:32;13.38;;;8.57;;
76155;SDS011;64906;51.290;7.348;2023-08-21T08:17:59;14.82;;;10.23;;
76155;SDS011;64906;51.290;7.348;2023-08-21T08:20:24;17.00;;;11.90;;
76155;SDS011;64906;51.290;7.348;2023-08-21T08:22:50;14.70;;;10.07;;
76155;SDS011;64906;51.290;7.348;2023-08-21T08:25:15;17.93;;;11.50;;
76155;SDS011;64906;51.290;7.348;2023-08-21T08:27:40;18.05;;;12.02;;
76155;SDS011;64906;51.290;7.348;2023-08-21T08:30:06;16.17;;;11.57;;
76155;SDS011;64906;51.290;7.348;2023-08-21T08:32:32;17.48;;;12.65;;
76155;SDS011;64906;51.290;7.348;2023-08-21T08:34:57;17.80;;;12.25;;
76155;SDS011;64906;51.290;7.348;2023-08-21T08:37:23;17.60;;;11.90;;
76155;SDS011;64906;51.290;7.348;2023-08-21T08:39:48;19.37;;;13.97;;
76155;SDS011;64906;51.290;7.348;2023-08-21T08:42:14;19.80;;;13.68;;
76155;SDS011;64906;51.290;7.348;2023-08-21T08:44:41;21.15;;;14.57;;
76155;SDS011;64906;51.290;7.348;2023-08-21T08:47:10;19.23;;;14.15;;
76155;SDS011;64906;51.290;7.348;2023-08-21T08:49:39;19.35;;;14.07;;
76155;SDS011;64906;51.290;7.348;2023-08-21T08:52:04;22.48;;;15.38;;
76155;SDS011;64906;51.290;7.348;2023-08-21T08:54:30;23.17;;;15.27;;
76155;SDS011;64906;51.290;7.348;2023-08-21T08:56:56;22.55;;;16.38;;
76155;SDS011;64906;51.290;7.348;2023-08-21T08:59:22;23.13;;;16.77;;
76155;SDS011;64906;51.290;7.348;2023-08-21T09:01:47;25.50;;;16.73;;
76155;SDS011;64906;51.290;7.348;2023-08-21T09:04:13;24.63;;;17.25;;
76155;SDS011;64906;51.290;7.348;2023-08-21T09:06:38;23.08;;;17.15;;
76155;SDS011;64906;51.290;7.348;2023-08-21T09:09:04;22.80;;;16.53;;
76155;SDS011;64906;51.290;7.348;2023-08-21T09:11:29;25.48;;;17.90;;
76155;SDS011;64906;51.290;7.348;2023-08-21T09:13:55;26.20;;;18.40;;
76155;SDS011;64906;51.290;7.348;2023-08-21T09:16:21;24.02;;;17.13;;
76155;SDS011;64906;51.290;7.348;2023-08-21T09:18:48;25.75;;;19.50;;
76155;SDS011;64906;51.290;7.348;2023-08-21T09:21:18;26.08;;;19.13;;
76155;SDS011;64906;51.290;7.348;2023-08-21T09:23:44;25.02;;;18.35;;
76155;SDS011;64906;51.290;7.348;2023-08-21T09:26:11;28.52;;;21.35;;
76155;SDS011;64906;51.290;7.348;2023-08-21T09:28:46;26.33;;;20.23;;
76155;SDS011;64906;51.290;7.348;2023-08-21T09:31:11;28.48;;;21.45;;
76155;SDS011;64906;51.290;7.348;2023-08-21T09:33:37;30.30;;;20.40;;
76155;SDS011;64906;51.290;7.348;2023-08-21T09:36:02;30.75;;;22.10;;
76155;SDS011;64906;51.290;7.348;2023-08-21T09:38:29;28.70;;;20.27;;
76155;SDS011;64906;51.290;7.348;2023-08-21T09:40:55;31.13;;;21.75;;
76155;SDS011;64906;51.290;7.348;2023-08-21T09:43:21;30.75;;;21.25;;
76155;SDS011;64906;51.290;7.348;2023-08-21T09:45:50;30.35;;;21.73;;
76155;SDS011;64906;51.290;7.348;2023-08-21T09:48:18;32.05;;;23.30;;
76155;SDS011;64906;51.290;7.348;2023-08-21T09:50:46;32.05;;;23.58;;
76155;SDS011;64906;51.290;7.348;2023-08-21T09:53:11;30.37;;;22.07;;
76155;SDS011;64906;51.290;7.348;2023-08-21T09:55:37;31.73;;;22.85;;
76155;SDS011;64906;51.290;7.348;2023-08-21T09:58:03;34.17;;;23.17;;
76155;SDS011;64906;51.290;7.348;2023-08-21T10:00:30;33.17;;;24.05;;
76155;SDS011;64906;51.290;7.348;2023-08-21T10:03:01;31.40;;;23.08;;
76155;SDS011;64906;51.290;7.348;2023-08-21T10:05:28;32.72;;;23.48;;
76155;SDS011;64906;51.290;7.348;2023-08-21T10:07:55;34.42;;;24.85;;
76155;SDS011;64906;51.290;7.348;2023-08-21T10:10:21;33.30;;;23.63;;
76155;SDS011;64906;51.290;7.348;2023-08-21T10:12:47;33.92;;;24.60;;
76155;SDS011;64906;51.290;7.348;2023-08-21T10:15:13;34.67;;;23.88;;
76155;SDS011;64906;51.290;7.348;2023-08-21T10:17:41;31.42;;;23.48;;
76155;SDS011;64906;51.290;7.348;2023-08-21T10:20:08;32.90;;;25.42;;
76155;SDS011;64906;51.290;7.348;2023-08-21T10:22:43;34.00;;;25.02;;
76155;SDS011;64906;51.290;7.348;2023-08-21T10:25:17;33.00;;;24.27;;
76155;SDS011;64906;51.290;7.348;2023-08-21T10:27:50;35.47;;;26.17;;
76155;SDS011;64906;51.290;7.348;2023-08-21T10:30:24;33.40;;;23.90;;
76155;SDS011;64906;51.290;7.348;2023-08-21T10:32:52;34.17;;;24.75;;
76155;SDS011;64906;51.290;7.348;2023-08-21T10:35:23;33.78;;;24.85;;
76155;SDS011;64906;51.290;7.348;2023-08-21T10:40:34;33.78;;;25.08;;
76155;SDS011;64906;51.290;7.348;2023-08-21T10:43:00;32.45;;;24.52;;
76155;SDS011;64906;51.290;7.348;2023-08-21T10:45:27;34.67;;;24.55;;
76155;SDS011;64906;51.290;7.348;2023-08-21T10:47:54;34.00;;;24.65;;
76155;SDS011;64906;51.290;7.348;2023-08-21T10:50:22;34.03;;;24.75;;
76155;SDS011;64906;51.290;7.348;2023-08-21T10:52:47;32.42;;;24.05;;
76155;SDS011;64906;51.290;7.348;2023-08-21T10:55:16;33.55;;;25.27;;
76155;SDS011;64906;51.290;7.348;2023-08-21T10:57:43;34.17;;;24.98;;
76155;SDS011;64906;51.290;7.348;2023-08-21T11:00:09;34.28;;;25.27;;
76155;SDS011;64906;51.290;7.348;2023-08-21T11:02:37;34.70;;;25.23;;
76155;SDS011;64906;51.290;7.348;2023-08-21T11:05:04;35.05;;;25.20;;
76155;SDS011;64906;51.290;7.348;2023-08-21T11:07:36;34.42;;;25.48;;
76155;SDS011;64906;51.290;7.348;2023-08-21T11:10:03;35.42;;;25.55;;
76155;SDS011;64906;51.290;7.348;2023-08-21T11:12:28;34.45;;;25.25;;
76155;SDS011;64906;51.290;7.348;2023-08-21T11:14:54;33.67;;;25.20;;
76155;SDS011;64906;51.290;7.348;2023-08-21T11:17:19;33.77;;;26.30;;
76155;SDS011;64906;51.290;7.348;2023-08-21T11:19:45;33.70;;;25.00;;
76155;SDS011;64906;51.290;7.348;2023-08-21T11:22:10;34.20;;;25.55;;
76155;SDS011;64906;51.290;7.348;2023-08-21T11:27:01;34.70;;;24.73;;
76155;SDS011;64906;51.290;7.348;2023-08-21T11:29:28;33.40;;;23.95;;
76155;SDS011;64906;51.290;7.348;2023-08-21T11:31:54;31.77;;;23.17;;
76155;SDS011;64906;51.290;7.348;2023-08-21T11:34:19;30.95;;;23.33;;
76155;SDS011;64906;51.290;7.348;2023-08-21T11:36:45;30.52;;;23.30;;
76155;SDS011;64906;51.290;7.348;2023-08-21T11:39:10;31.52;;;23.60;;
76155;SDS011;64906;51.290;7.348;2023-08-21T11:44:21;35.20;;;24.30;;
76155;SDS011;64906;51.290;7.348;2023-08-21T11:46:47;31.23;;;23.55;;
76155;SDS011;64906;51.290;7.348;2023-08-21T11:49:12;30.02;;;22.58;;
76155;SDS011;64906;51.290;7.348;2023-08-21T11:51:38;30.90;;;23.63;;
76155;SDS011;64906;51.290;7.348;2023-08-21T11:54:04;31.20;;;23.33;;
76155;SDS011;64906;51.290;7.348;2023-08-21T11:56:31;32.45;;;24.35;;
76155;SDS011;64906;51.290;7.348;2023-08-21T11:58:56;33.72;;;24.35;;
76155;SDS011;64906;51.290;7.348;2023-08-21T12:01:24;32.20;;;23.85;;
76155;SDS011;64906;51.290;7.348;2023-08-21T12:03:49;32.15;;;23.98;;
76155;SDS011;64906;51.290;7.348;2023-08-21T12:06:21;35.80;;;25.25;;
76155;SDS011;64906;51.290;7.348;2023-08-21T12:08:47;34.25;;;25.52;;
76155;SDS011;64906;51.290;7.348;2023-08-21T12:11:13;35.05;;;23.67;;
76155;SDS011;64906;51.290;7.348;2023-08-21T12:13:38;33.70;;;24.63;;
76155;SDS011;64906;51.290;7.348;2023-08-21T12:16:04;34.83;;;24.53;;
76155;SDS011;64906;51.290;7.348;2023-08-21T12:18:29;36.08;;;26.23;;
76155;SDS011;64906;51.290;7.348;2023-08-21T12:20:55;36.50;;;26.52;;
76155;SDS011;64906;51.290;7.348;2023-08-21T12:23:20;35.25;;;25.10;;
76155;SDS011;64906;51.290;7.348;2023-08-21T12:25:45;33.37;;;24.10;;
76155;SDS011;64906;51.290;7.348;2023-08-21T12:28:11;31.47;;;22.77;;
76155;SDS011;64906;51.290;7.348;2023-08-21T12:30:36;31.42;;;22.98;;
76155;SDS011;64906;51.290;7.348;2023-08-21T12:33:02;33.22;;;24.50;;
76155;SDS011;64906;51.290;7.348;2023-08-21T12:35:27;29.67;;;21.58;;
76155;SDS011;64906;51.290;7.348;2023-08-21T12:37:56;28.65;;;20.60;;
76155;SDS011;64906;51.290;7.348;2023-08-21T12:40:23;29.40;;;21.98;;
76155;SDS011;64906;51.290;7.348;2023-08-21T12:42:48;30.10;;;23.10;;
76155;SDS011;64906;51.290;7.348;2023-08-21T12:45:14;30.25;;;21.23;;
76155;SDS011;64906;51.290;7.348;2023-08-21T12:47:40;28.75;;;20.98;;
76155;SDS011;64906;51.290;7.348;2023-08-21T12:50:05;31.07;;;21.10;;
76155;SDS011;64906;51.290;7.348;2023-08-21T12:52:31;30.13;;;21.38;;
76155;SDS011;64906;51.290;7.348;2023-08-21T12:54:57;31.53;;;21.67;;
76155;SDS011;64906;51.290;7.348;2023-08-21T12:57:22;26.10;;;19.23;;
76155;SDS011;64906;51.290;7.348;2023-08-21T12:59:47;28.27;;;19.93;;
76155;SDS011;64906;51.290;7.348;2023-08-21T13:02:13;28.80;;;20.60;;
76155;SDS011;64906;51.290;7.348;2023-08-21T13:04:38;29.03;;;21.20;;
76155;SDS011;64906;51.290;7.348;2023-08-21T13:07:04;29.57;;;21.83;;
76155;SDS011;64906;51.290;7.348;2023-08-21T13:09:30;29.73;;;23.05;;
76155;SDS011;64906;51.290;7.348;2023-08-21T13:11:55;29.98;;;20.00;;
76155;SDS011;64906;51.290;7.348;2023-08-21T13:14:20;29.35;;;22.42;;
76155;SDS011;64906;51.290;7.348;2023-08-21T13:16:46;30.77;;;22.73;;
76155;SDS011;64906;51.290;7.348;2023-08-21T13:19:11;29.10;;;20.53;;
76155;SDS011;64906;51.290;7.348;2023-08-21T13:21:36;33.70;;;23.88;;
76155;SDS011;64906;51.290;7.348;2023-08-21T13:24:02;31.63;;;23.57;;
76155;SDS011;64906;51.290;7.348;2023-08-21T13:26:28;29.17;;;22.42;;
76155;SDS011;64906;51.290;7.348;2023-08-21T13:28:54;29.77;;;22.02;;
76155;SDS011;64906;51.290;7.348;2023-08-21T13:31:20;33.22;;;23.70;;
76155;SDS011;64906;51.290;7.348;2023-08-21T13:33:46;37.78;;;27.65;;
76155;SDS011;64906;51.290;7.348;2023-08-21T13:36:12;38.35;;;27.77;;
76155;SDS011;64906;51.290;7.348;2023-08-21T13:38:37;37.35;;;25.60;;
76155;SDS011;64906;51.290;7.348;2023-08-21T13:41:03;36.47;;;26.30;;
76155;SDS011;64906;51.290;7.348;2023-08-21T13:43:28;38.03;;;25.98;;
76155;SDS011;64906;51.290;7.348;2023-08-21T13:45:54;36.03;;;26.65;;
76155;SDS011;64906;51.290;7.348;2023-08-21T13:48:19;45.20;;;31.50;;
76155;SDS011;64906;51.290;7.348;2023-08-21T13:50:44;34.93;;;25.03;;
76155;SDS011;64906;51.290;7.348;2023-08-21T13:53:10;40.33;;;27.87;;
76155;SDS011;64906;51.290;7.348;2023-08-21T13:55:35;38.33;;;27.42;;
76155;SDS011;64906;51.290;7.348;2023-08-21T13:58:01;41.50;;;29.07;;
76155;SDS011;64906;51.290;7.348;2023-08-21T14:00:26;40.20;;;27.93;;
76155;SDS011;64906;51.290;7.348;2023-08-21T14:02:51;37.20;;;26.23;;
76155;SDS011;64906;51.290;7.348;2023-08-21T14:05:16;35.20;;;25.73;;
76155;SDS011;64906;51.290;7.348;2023-08-21T14:07:42;36.50;;;26.63;;
76155;SDS011;64906;51.290;7.348;2023-08-21T14:10:08;32.53;;;24.00;;
76155;SDS011;64906;51.290;7.348;2023-08-21T14:12:33;33.25;;;24.02;;
76155;SDS011;64906;51.290;7.348;2023-08-21T14:14:59;35.00;;;25.67;;
76155;SDS011;64906;51.290;7.348;2023-08-21T14:17:25;36.00;;;27.60;;
76155;SDS011;64906;51.290;7.348;2023-08-21T14:19:51;33.65;;;24.67;;
76155;SDS011;64906;51.290;7.348;2023-08-21T14:22:16;34.78;;;25.10;;
76155;SDS011;64906;51.290;7.348;2023-08-21T14:24:41;33.45;;;24.73;;
76155;SDS011;64906;51.290;7.348;2023-08-21T14:27:07;37.03;;;26.92;;
76155;SDS011;64906;51.290;7.348;2023-08-21T14:29:32;44.35;;;30.40;;
76155;SDS011;64906;51.290;7.348;2023-08-21T14:31:58;51.23;;;29.30;;